This is the latest recevied weather packets stored in our database for station/object YN9ZAM-13. If no packets are shown the sender has not sent any weather packets the latest 10 day(s).
| Time | Temp. | Humidity | Pressure | Rain* | Wind** | Luminosity | Snow |
|---|---|---|---|---|---|---|---|
| 1777755615 | 32.78° C | 38% | 1007 hPa | 0 mm | - | - | - |
| 1777755015 | 33.33° C | 38% | 1007 hPa | 0 mm | - | - | - |
| 1777754415 | 33.89° C | 38% | 1008 hPa | 0 mm | - | - | - |
| 1777753814 | 33.89° C | 38% | 1008 hPa | 0 mm | - | - | - |
| 1777753214 | 34.44° C | 38% | 1008 hPa | 0 mm | - | - | - |
| 1777752614 | 32.22° C | 35% | 1008 hPa | 0 mm | - | - | - |
| 1777752013 | 32.78° C | 35% | 1008 hPa | 0 mm | - | - | - |
| 1777751413 | 33.33° C | 35% | 1008 hPa | 0 mm | - | - | - |
| 1777750812 | 31.67° C | 36% | 1008 hPa | 0 mm | - | - | - |
| 1777750212 | 31.67° C | 36% | 1008 hPa | 0 mm | - | - | - |
| 1777749612 | 31.11° C | 40% | 1009 hPa | 0 mm | - | - | - |
| 1777749012 | 31.11° C | 40% | 1009 hPa | 0 mm | - | - | - |
| 1777748412 | 38.89° C | 38% | 1009 hPa | 0 mm | - | - | - |
| 1777747811 | 38.89° C | 38% | 1009 hPa | 0 mm | - | - | - |
| 1777747211 | 32.22° C | 42% | 1009 hPa | 0 mm | - | - | - |
| 1777746610 | 32.22° C | 42% | 1009 hPa | 0 mm | - | - | - |
| 1777746010 | 32.78° C | 42% | 1010 hPa | 0 mm | - | - | - |
| 1777745410 | 33.33° C | 42% | 1010 hPa | 0 mm | - | - | - |
| 1777744809 | 33.33° C | 42% | 1010 hPa | 0 mm | - | - | - |
| 1777744209 | 33.89° C | 42% | 1010 hPa | 0 mm | - | - | - |
| 1777743609 | 34.44° C | 42% | 1010 hPa | 0 mm | - | - | - |
| 1777743009 | 35° C | 42% | 1011 hPa | 0 mm | - | - | - |
| 1777742408 | 30.56° C | 47% | 1012 hPa | 0 mm | - | - | - |
| 1777741808 | 31.11° C | 47% | 1012 hPa | 0 mm | - | - | - |
| 1777741207 | 31.11° C | 47% | 1012 hPa | 0 mm | - | - | - |
* Rain latest hour (hover to see other rain measurements)
** Current wind speed in m/s (hover to see current wind gust speed)